Share

Avao, Samoa

Faleolo International (NSFA) Elev 16 ft | 13.83 °S, 172.01 °W | Change Station

Current weather conditions updated 1 hour ago

Mostly Cloudy
Mostly Cloudy
86 °F
Feels Like 93 °F
N
5
Wind Variable Wind from SE
Sunrise 6:35 AM
Sunset 6:21 PM
Moon Waning Gibbous

Tomorrow is forecast to be Cooler than today. Thunderstorms.

Pressure 29.77 in
Visibility 6.2 miles
Clouds Mostly Cloudy 2000 ft
Heat Index 93 °F
Dew Point 73 °F
Humidity 66%
Rainfall 0.00 in
Snow Depth Not available.
UV 3 out of 16
Pollen Not available.
Air Quality Not available.
Flu Activity Not available.
METAR NSFA 180200Z 13004KT 9999 BKN020 30/23 Q1008

More Conditions Fewer Conditions

Pressure 29.77 in
Visibility 6.2 miles
Clouds Mostly Cloudy 2000 ft
Heat Index 93 °F
Dew Point 73 °F
Humidity 66%
Rainfall 0.00 in
Snow Depth Not available.
UV 3 out of 16
Pollen Not available.
Air Quality Not available.
Flu Activity Not available.
METAR NSFA 180200Z 13004KT 9999 BKN020 30/23 Q1008

More Conditions Fewer Conditions

10-Day Forecast

Almanac

Astronomy

Apr. 18, 2014 Rise Set
Actual Time 6:35 AM WST 6:21 PM WST
Civil Twilight 6:14 AM WST 6:42 PM WST
Nautical Twilight 5:49 AM WST 7:07 PM WST
Astronomical Twilight 5:24 AM WST 7:32 PM WST
Moon 8:44 PM WST 8:51 AM WST
Length of Visible Light 12h 28m
Length of Day
11h 45m
Tomorrow will be 0m 40s shorter.
Waning Gibbous, 91% of the Moon is Illuminated
Apr 17
Waning Gibbous
Apr 22
Last Quarter
Apr 29
New
May 6
First Quarter
May 14
Full

Yesterday's Extremes

Country Highs Country Lows

Community

  • SUNRISE THROUGH THE TREES.
    SUNRISE THROUGH THE TREES.
  • Dog Wood Blossoms
    Dog Wood Blossoms
  • Morning Light
    Morning Light
  • New Day
    New Day
  • Lake Michigan Sunrise
    Lake Michigan Sunrise

WunderPhotos

Upload Photos

1,702,234 photos uploaded!

WunderBlogs® & News

Nearby

Snow Depth

Not available.

Coastal Water Temperatures

Place Temperature
No Stations Reporting

Earthquake Activity

City Distance Mag. Time & Date
No recent earthquake activity has been reported nearby.
Minimum magnitude displayed is 2.5.

Nearby Weather Stations

There are no personal weather stations in this area.

What do you think?

We're not finished. Please let us know what you like, what you don't like, and what you are still missing.